createdAt,value
2023-03-04T00:00:28.769Z,8.20
2023-03-04T00:02:56.048Z,8.20
2023-03-04T00:05:22.969Z,8.20
2023-03-04T00:07:49.991Z,9.30
2023-03-04T00:10:17.477Z,8.90
2023-03-04T00:12:44.491Z,8.20
2023-03-04T00:15:11.641Z,8.20
2023-03-04T00:17:38.704Z,8.20
2023-03-04T00:20:06.659Z,8.20
2023-03-04T00:22:34.505Z,8.20
2023-03-04T00:25:01.537Z,8.20
2023-03-04T00:27:28.501Z,8.20
2023-03-04T00:29:56.792Z,8.20
2023-03-04T00:32:24.060Z,8.20
2023-03-04T00:34:51.243Z,8.20
2023-03-04T00:37:18.239Z,8.20
2023-03-04T00:39:46.009Z,8.20
2023-03-04T00:42:13.013Z,8.20
2023-03-04T00:44:39.965Z,8.10
2023-03-04T00:47:07.789Z,8.10
2023-03-04T00:49:34.755Z,8.20
2023-03-04T00:52:01.802Z,8.10
2023-03-04T00:54:28.833Z,8.10
2023-03-04T00:56:56.416Z,6.80
2023-03-04T00:59:23.408Z,8.60
2023-03-04T01:01:50.603Z,8.10
2023-03-04T01:04:17.907Z,8.10
2023-03-04T01:06:44.866Z,9.60
2023-03-04T01:09:12.714Z,8.10
2023-03-04T01:11:39.668Z,8.10
2023-03-04T01:14:06.809Z,8.10
2023-03-04T01:16:34.842Z,8.10
2023-03-04T01:19:02.074Z,8.20
2023-03-04T01:21:33.402Z,8.20
2023-03-04T01:24:00.692Z,8.20
2023-03-04T01:26:27.633Z,8.20
2023-03-04T01:28:55.469Z,8.20
2023-03-04T01:31:22.428Z,8.20
2023-03-04T01:33:51.126Z,9.50
2023-03-04T01:36:18.114Z,8.20
2023-03-04T01:38:45.205Z,8.20
2023-03-04T01:41:14.531Z,8.20
2023-03-04T01:43:41.722Z,8.20
2023-03-04T01:46:13.004Z,8.10
2023-03-04T01:48:40.128Z,8.20
2023-03-04T01:51:18.383Z,9.30
2023-03-04T01:53:50.153Z,8.20
2023-03-04T01:56:25.376Z,8.10
2023-03-04T01:59:17.007Z,8.40
2023-03-04T02:01:48.699Z,8.20
2023-03-04T02:04:19.151Z,8.20
2023-03-04T02:06:48.075Z,8.20
2023-03-04T02:09:16.791Z,8.20
2023-03-04T02:11:47.551Z,8.20
2023-03-04T02:14:16.895Z,8.20
2023-03-04T02:16:44.135Z,8.20
2023-03-04T02:19:49.527Z,8.20
2023-03-04T02:22:16.531Z,8.20
2023-03-04T02:24:55.596Z,8.40
2023-03-04T02:27:23.397Z,9.20
2023-03-04T02:29:50.335Z,8.20
2023-03-04T02:32:18.176Z,8.20
2023-03-04T02:34:50.872Z,8.20
2023-03-04T02:37:20.163Z,8.20
2023-03-04T02:39:50.283Z,8.10
2023-03-04T02:42:18.733Z,8.10
2023-03-04T02:44:49.334Z,9.50
2023-03-04T02:47:19.491Z,8.10
2023-03-04T02:49:48.296Z,8.10
2023-03-04T02:52:23.593Z,8.10
2023-03-04T02:54:51.443Z,8.10
2023-03-04T02:57:18.785Z,8.10
2023-03-04T02:59:49.997Z,8.10
2023-03-04T03:02:21.293Z,8.10
2023-03-04T03:04:48.252Z,9.30
2023-03-04T03:07:18.333Z,9.10
2023-03-04T03:09:45.472Z,8.70
2023-03-04T03:12:13.230Z,8.10
2023-03-04T03:14:40.453Z,8.10
2023-03-04T03:17:10.601Z,8.10
2023-03-04T03:19:37.604Z,8.10
2023-03-04T03:22:07.038Z,8.10
2023-03-04T03:24:34.579Z,10.20
2023-03-04T03:27:01.534Z,8.00
2023-03-04T03:29:28.538Z,8.20
2023-03-04T03:31:56.986Z,8.10
2023-03-04T03:34:24.262Z,8.10
2023-03-04T03:36:51.585Z,8.10
2023-03-04T03:39:18.535Z,8.10
2023-03-04T03:41:45.538Z,8.10
2023-03-04T03:44:12.475Z,8.10
2023-03-04T03:46:39.337Z,8.10
2023-03-04T03:49:06.365Z,8.10
2023-03-04T03:51:33.261Z,8.10
2023-03-04T03:54:01.121Z,8.10
2023-03-04T03:56:28.866Z,8.10
2023-03-04T03:58:56.078Z,8.10
2023-03-04T04:01:22.956Z,8.10
2023-03-04T04:03:49.832Z,8.10
2023-03-04T04:06:17.178Z,8.10
2023-03-04T04:08:44.363Z,9.40
2023-03-04T04:11:13.218Z,8.10
2023-03-04T04:13:40.213Z,8.10
2023-03-04T04:16:08.103Z,8.10
2023-03-04T04:18:35.420Z,8.10
2023-03-04T04:21:02.551Z,10.00
2023-03-04T04:23:29.538Z,8.00
2023-03-04T04:25:58.088Z,8.00
2023-03-04T04:28:25.264Z,8.00
2023-03-04T04:30:52.258Z,8.00
2023-03-04T04:33:19.489Z,9.60
2023-03-04T04:35:46.550Z,8.00
2023-03-04T04:38:13.509Z,8.00
2023-03-04T04:40:40.483Z,8.00
2023-03-04T04:43:07.510Z,8.00
2023-03-04T04:45:35.404Z,8.10
2023-03-04T04:48:02.348Z,8.00
2023-03-04T04:50:31.823Z,8.00
2023-03-04T04:52:59.917Z,8.20
2023-03-04T04:55:26.985Z,8.00
2023-03-04T04:57:53.934Z,8.00
2023-03-04T05:00:21.484Z,9.70
2023-03-04T05:02:48.412Z,8.00
2023-03-04T05:05:15.322Z,8.00
2023-03-04T05:07:42.314Z,8.00
2023-03-04T05:10:10.680Z,9.50
2023-03-04T05:12:37.644Z,8.00
2023-03-04T05:15:05.159Z,8.00
2023-03-04T05:17:32.201Z,8.00
2023-03-04T05:19:59.077Z,8.00
2023-03-04T05:22:26.074Z,8.00
2023-03-04T05:24:55.575Z,8.00
2023-03-04T05:27:22.810Z,8.00
2023-03-04T05:29:49.792Z,8.00
2023-03-04T05:32:16.843Z,8.00
2023-03-04T05:34:43.785Z,8.00
2023-03-04T05:37:10.677Z,8.00
2023-03-04T05:39:37.640Z,8.00
2023-03-04T05:42:04.676Z,8.00
2023-03-04T05:44:31.520Z,8.00
2023-03-04T05:46:58.534Z,8.00
2023-03-04T05:49:25.468Z,8.00
2023-03-04T05:51:53.240Z,8.00
2023-03-04T05:54:20.136Z,8.00
2023-03-04T05:56:47.056Z,8.00
2023-03-04T05:59:14.058Z,9.80
2023-03-04T06:01:41.067Z,8.00
2023-03-04T06:04:08.087Z,8.00
2023-03-04T06:06:35.856Z,7.90
2023-03-04T06:09:03.090Z,8.10
2023-03-04T06:11:30.132Z,8.90
2023-03-04T06:13:57.064Z,8.00
2023-03-04T06:16:24.095Z,8.00
2023-03-04T06:18:50.945Z,8.00
2023-03-04T06:21:17.883Z,8.50
2023-03-04T06:23:45.592Z,8.00
2023-03-04T06:26:15.485Z,8.00
2023-03-04T06:28:44.132Z,8.00
2023-03-04T06:31:11.307Z,8.00
2023-03-04T06:33:38.248Z,8.00
2023-03-04T06:36:05.751Z,8.00
2023-03-04T06:38:32.635Z,8.00
2023-03-04T06:41:11.358Z,8.00
2023-03-04T06:43:39.283Z,8.00
2023-03-04T06:46:08.708Z,8.00
2023-03-04T06:48:36.645Z,7.90
2023-03-04T06:51:09.362Z,7.90
2023-03-04T06:53:37.409Z,7.90
2023-03-04T06:56:05.243Z,7.90
2023-03-04T06:58:32.582Z,7.90
2023-03-04T07:01:12.556Z,8.80
2023-03-04T07:03:39.892Z,7.90
2023-03-04T07:06:08.999Z,7.90
2023-03-04T07:08:36.109Z,7.90
2023-03-04T07:11:03.427Z,7.90
2023-03-04T07:13:32.600Z,8.00
2023-03-04T07:16:00.829Z,7.90
2023-03-04T07:18:27.797Z,7.90
2023-03-04T07:20:54.775Z,7.90
2023-03-04T07:23:21.825Z,9.10
2023-03-04T07:25:50.861Z,7.90
2023-03-04T07:28:18.848Z,8.00
2023-03-04T07:30:46.303Z,8.00
2023-03-04T07:33:14.500Z,8.00
2023-03-04T07:35:42.291Z,8.00
2023-03-04T07:38:09.591Z,8.00
2023-03-04T07:40:37.486Z,8.00
2023-03-04T07:43:05.525Z,8.10
2023-03-04T07:45:32.505Z,8.10
2023-03-04T07:48:00.579Z,8.10
2023-03-04T07:50:27.493Z,8.10
2023-03-04T07:52:55.329Z,9.20
2023-03-04T07:55:22.207Z,8.20
2023-03-04T07:57:49.926Z,8.30
2023-03-04T08:00:17.944Z,8.30
2023-03-04T08:02:44.980Z,8.30
2023-03-04T08:05:12.038Z,8.40
2023-03-04T08:07:39.033Z,8.40
2023-03-04T08:10:08.210Z,8.50
2023-03-04T08:12:36.425Z,8.50
2023-03-04T08:15:04.697Z,10.20
2023-03-04T08:17:31.869Z,8.50
2023-03-04T08:19:58.857Z,8.60
2023-03-04T08:22:26.025Z,10.30
2023-03-04T08:24:52.860Z,8.60
2023-03-04T08:27:20.743Z,9.40
2023-03-04T08:29:47.642Z,8.60
2023-03-04T08:32:14.723Z,10.60
2023-03-04T08:34:42.522Z,8.70
2023-03-04T08:37:09.624Z,8.70
2023-03-04T08:39:37.781Z,8.70
2023-03-04T08:42:04.975Z,9.00
2023-03-04T08:44:31.821Z,8.90
2023-03-04T08:46:59.542Z,10.80
2023-03-04T08:49:26.404Z,10.10
2023-03-04T08:51:54.149Z,11.00
2023-03-04T08:54:21.062Z,9.10
2023-03-04T08:56:48.006Z,9.60
2023-03-04T08:59:14.904Z,9.60
2023-03-04T09:01:42.160Z,9.30
2023-03-04T09:04:09.324Z,9.30
2023-03-04T09:06:36.601Z,9.40
2023-03-04T09:09:04.594Z,9.50
2023-03-04T09:11:32.105Z,9.50
2023-03-04T09:13:59.011Z,9.60
2023-03-04T09:16:27.329Z,9.70
2023-03-04T09:18:54.283Z,9.90
2023-03-04T09:21:21.265Z,10.00
2023-03-04T09:23:48.266Z,10.10
2023-03-04T09:26:25.453Z,10.20
2023-03-04T09:28:59.579Z,11.50
2023-03-04T09:31:28.114Z,11.50
2023-03-04T09:33:57.764Z,10.60
2023-03-04T09:36:25.169Z,10.60
2023-03-04T09:38:52.313Z,11.80
2023-03-04T09:41:25.592Z,10.90
2023-03-04T09:43:56.036Z,12.50
2023-03-04T09:46:34.275Z,11.00
2023-03-04T09:49:02.225Z,11.00
2023-03-04T09:51:36.103Z,11.10
2023-03-04T09:54:48.482Z,11.20
2023-03-04T09:57:41.625Z,11.20
2023-03-04T10:00:31.799Z,11.40
2023-03-04T10:03:19.865Z,11.40
2023-03-04T10:06:06.297Z,11.50
2023-03-04T10:08:54.040Z,11.50
2023-03-04T10:11:31.119Z,11.70
2023-03-04T10:14:23.101Z,11.70
2023-03-04T10:16:59.178Z,11.70
2023-03-04T10:19:59.046Z,12.80
2023-03-04T10:22:48.564Z,11.80
2023-03-04T10:25:27.674Z,12.30
2023-03-04T10:27:59.964Z,11.80
2023-03-04T10:30:40.177Z,12.70
2023-03-04T10:33:21.411Z,12.80
2023-03-04T10:36:04.207Z,13.10
2023-03-04T10:38:35.383Z,11.80
2023-03-04T10:41:16.021Z,11.80
2023-03-04T10:43:46.658Z,11.80
2023-03-04T10:46:16.007Z,11.90
2023-03-04T10:48:44.896Z,11.90
2023-03-04T10:51:25.640Z,13.00
2023-03-04T10:54:10.773Z,12.10
2023-03-04T10:56:45.624Z,12.10
2023-03-04T10:59:44.383Z,12.10
2023-03-04T11:02:34.617Z,12.10
2023-03-04T11:05:22.760Z,12.10
2023-03-04T11:07:57.512Z,12.00
2023-03-04T11:10:39.024Z,11.90
2023-03-04T11:13:11.833Z,11.80
2023-03-04T11:16:05.200Z,11.80
2023-03-04T11:18:50.700Z,11.60
2023-03-04T11:21:26.578Z,11.50
2023-03-04T11:23:59.800Z,11.40
2023-03-04T11:26:48.636Z,11.80
2023-03-04T11:29:24.809Z,11.40
2023-03-04T11:32:14.570Z,11.40
2023-03-04T11:35:06.464Z,11.30
2023-03-04T11:37:44.006Z,11.30
2023-03-04T11:40:44.340Z,11.30
2023-03-04T11:43:39.194Z,11.20
2023-03-04T11:46:37.869Z,11.30
2023-03-04T11:49:22.534Z,12.60
2023-03-04T11:52:39.716Z,11.10
2023-03-04T11:55:09.488Z,11.10
2023-03-04T11:58:12.344Z,11.10
2023-03-04T12:01:11.411Z,11.20
2023-03-04T12:04:07.855Z,11.20
2023-03-04T12:07:19.648Z,11.20
2023-03-04T12:10:16.174Z,11.20
2023-03-04T12:12:58.281Z,11.20
2023-03-04T12:15:39.987Z,11.20
2023-03-04T12:18:34.423Z,11.30
2023-03-04T12:21:19.703Z,11.30
2023-03-04T12:24:46.673Z,11.80
2023-03-04T12:28:03.880Z,11.50
2023-03-04T12:31:07.859Z,12.70
2023-03-04T12:34:14.699Z,11.70
2023-03-04T12:36:47.319Z,11.70
2023-03-04T12:39:38.084Z,11.80
2023-03-04T12:42:43.556Z,11.90
2023-03-04T12:45:45.358Z,13.10
2023-03-04T12:48:27.948Z,12.10
2023-03-04T12:51:00.978Z,12.10
2023-03-04T12:53:41.741Z,12.20
2023-03-04T12:56:40.129Z,12.30
2023-03-04T12:59:19.125Z,12.30
2023-03-04T13:02:07.758Z,12.40
2023-03-04T13:04:52.582Z,12.30
2023-03-04T13:07:43.952Z,12.30
2023-03-04T13:10:16.947Z,12.40
2023-03-04T13:12:57.305Z,12.40
2023-03-04T13:15:24.642Z,12.30
2023-03-04T13:18:24.182Z,12.20
2023-03-04T13:21:23.133Z,12.10
2023-03-04T13:23:52.094Z,12.00
2023-03-04T13:26:35.060Z,11.90
2023-03-04T13:29:13.577Z,11.80
2023-03-04T13:32:10.927Z,11.80
2023-03-04T13:34:57.682Z,11.70
2023-03-04T13:37:37.836Z,11.70
2023-03-04T13:40:24.713Z,11.50
2023-03-04T13:42:51.806Z,11.40
2023-03-04T13:45:34.593Z,12.40
2023-03-04T13:48:08.409Z,11.30
2023-03-04T13:50:48.423Z,11.10
2023-03-04T13:53:42.144Z,11.00
2023-03-04T13:56:22.131Z,11.00
2023-03-04T13:59:00.991Z,10.90
2023-03-04T14:01:34.341Z,11.60
2023-03-04T14:04:18.758Z,10.70
2023-03-04T14:06:51.967Z,10.70
2023-03-04T14:09:32.462Z,10.60
2023-03-04T14:12:15.558Z,10.60
2023-03-04T14:14:54.197Z,10.60
2023-03-04T14:17:44.722Z,11.10
2023-03-04T14:20:41.471Z,12.50
2023-03-04T14:23:32.793Z,10.50
2023-03-04T14:26:17.569Z,10.50
2023-03-04T14:28:51.951Z,10.40
2023-03-04T14:31:22.573Z,11.40
2023-03-04T14:33:59.702Z,10.50
2023-03-04T14:36:35.751Z,10.30
2023-03-04T14:39:09.176Z,10.30
2023-03-04T14:41:40.834Z,10.30
2023-03-04T14:44:30.916Z,12.00
2023-03-04T14:47:28.279Z,10.30
2023-03-04T14:49:55.455Z,10.40
2023-03-04T14:52:41.744Z,9.70
2023-03-04T14:55:16.465Z,11.60
2023-03-04T14:57:47.780Z,10.50
2023-03-04T15:00:20.467Z,12.40
2023-03-04T15:03:06.789Z,10.50
2023-03-04T15:05:37.213Z,10.50
2023-03-04T15:08:37.656Z,10.60
2023-03-04T15:11:08.157Z,10.60
2023-03-04T15:13:45.867Z,10.60
2023-03-04T15:16:16.144Z,11.90
2023-03-04T15:19:06.856Z,10.80
2023-03-04T15:21:42.406Z,10.90
2023-03-04T15:24:11.800Z,11.50
2023-03-04T15:26:42.611Z,10.90
2023-03-04T15:29:17.127Z,11.00
2023-03-04T15:31:48.249Z,13.00
2023-03-04T15:34:18.692Z,11.10
2023-03-04T15:36:50.244Z,11.10
2023-03-04T15:39:21.515Z,11.10
2023-03-04T15:41:50.529Z,11.20
2023-03-04T15:44:17.608Z,11.20
2023-03-04T15:46:44.696Z,12.90
2023-03-04T15:49:11.978Z,12.70
2023-03-04T15:51:39.261Z,12.60
2023-03-04T15:54:14.354Z,12.10
2023-03-04T15:56:42.931Z,11.30
2023-03-04T15:59:12.714Z,12.90
2023-03-04T16:01:39.932Z,11.70
2023-03-04T16:04:09.260Z,11.50
2023-03-04T16:06:36.360Z,11.20
2023-03-04T16:09:07.087Z,13.20
2023-03-04T16:11:43.795Z,12.20
2023-03-04T16:14:13.001Z,12.70
2023-03-04T16:16:40.979Z,10.90
2023-03-04T16:19:08.891Z,10.90
2023-03-04T16:21:36.277Z,10.80
2023-03-04T16:24:05.029Z,11.90
2023-03-04T16:26:33.461Z,10.70
2023-03-04T16:29:01.316Z,10.70
2023-03-04T16:31:28.250Z,10.70
2023-03-04T16:33:55.351Z,10.50
2023-03-04T16:36:27.806Z,12.40
2023-03-04T16:39:03.246Z,10.50
2023-03-04T16:41:30.786Z,10.50
2023-03-04T16:44:01.853Z,10.80
2023-03-04T16:46:31.944Z,12.00
2023-03-04T16:48:58.910Z,12.10
2023-03-04T16:51:25.882Z,10.40
2023-03-04T16:53:58.036Z,12.30
2023-03-04T16:56:26.131Z,11.80
2023-03-04T16:58:56.207Z,10.30
2023-03-04T17:01:27.861Z,11.10
2023-03-04T17:03:57.024Z,10.20
2023-03-04T17:06:25.150Z,10.20
2023-03-04T17:08:52.205Z,11.10
2023-03-04T17:11:22.758Z,12.00
2023-03-04T17:13:50.623Z,10.00
2023-03-04T17:16:17.976Z,10.00
2023-03-04T17:18:46.046Z,11.10
2023-03-04T17:21:20.706Z,9.90
2023-03-04T17:23:48.618Z,9.90
2023-03-04T17:26:16.681Z,9.90
2023-03-04T17:28:43.639Z,9.90
2023-03-04T17:31:13.021Z,9.90
2023-03-04T17:33:41.233Z,9.90
2023-03-04T17:36:11.893Z,10.60
2023-03-04T17:38:40.260Z,9.80
2023-03-04T17:41:13.326Z,9.70
2023-03-04T17:43:48.542Z,9.70
2023-03-04T17:46:19.161Z,10.10
2023-03-04T17:48:46.570Z,9.60
2023-03-04T17:51:13.482Z,9.00
2023-03-04T17:53:41.067Z,9.50
2023-03-04T17:56:12.017Z,9.50
2023-03-04T17:58:40.204Z,9.40
2023-03-04T18:01:20.106Z,9.40
2023-03-04T18:03:47.823Z,9.30
2023-03-04T18:06:14.897Z,9.80
2023-03-04T18:08:42.683Z,11.00
2023-03-04T18:11:10.653Z,9.80
2023-03-04T18:13:40.455Z,9.30
2023-03-04T18:16:12.005Z,9.30
2023-03-04T18:18:39.005Z,9.20
2023-03-04T18:21:06.550Z,11.40
2023-03-04T18:23:33.516Z,9.20
2023-03-04T18:26:01.689Z,9.20
2023-03-04T18:28:29.499Z,9.10
2023-03-04T18:30:57.042Z,9.20
2023-03-04T18:33:24.471Z,10.30
2023-03-04T18:36:02.528Z,10.40
2023-03-04T18:38:32.080Z,9.10
2023-03-04T18:41:01.949Z,9.10
2023-03-04T18:43:29.701Z,9.50
2023-03-04T18:46:11.213Z,10.00
2023-03-04T18:48:50.254Z,9.10
2023-03-04T18:51:17.374Z,9.10
2023-03-04T18:53:44.259Z,9.70
2023-03-04T18:56:20.496Z,8.70
2023-03-04T18:58:50.462Z,9.00
2023-03-04T19:01:23.583Z,9.00
2023-03-04T19:03:51.487Z,9.00
2023-03-04T19:06:18.888Z,9.00
2023-03-04T19:08:45.974Z,10.20
2023-03-04T19:11:13.125Z,9.00
2023-03-04T19:13:40.137Z,9.70
2023-03-04T19:16:07.687Z,11.10
2023-03-04T19:18:34.682Z,9.00
2023-03-04T19:21:04.194Z,9.00
2023-03-04T19:23:32.391Z,9.00
2023-03-04T19:25:59.321Z,9.00
2023-03-04T19:28:26.370Z,9.30
2023-03-04T19:30:54.758Z,9.00
2023-03-04T19:33:21.854Z,9.00
2023-03-04T19:35:48.823Z,9.00
2023-03-04T19:38:17.719Z,9.00
2023-03-04T19:40:46.750Z,9.00
2023-03-04T19:43:15.015Z,10.40
2023-03-04T19:45:42.138Z,10.30
2023-03-04T19:48:09.142Z,9.10
2023-03-04T19:50:36.094Z,9.00
2023-03-04T19:53:03.057Z,9.00
2023-03-04T19:55:30.277Z,9.00
2023-03-04T19:57:57.237Z,9.00
2023-03-04T20:00:24.450Z,9.00
2023-03-04T20:02:51.943Z,8.90
2023-03-04T20:05:18.886Z,10.10
2023-03-04T20:07:45.845Z,10.00
2023-03-04T20:10:14.341Z,8.90
2023-03-04T20:12:41.418Z,8.90
2023-03-04T20:15:09.020Z,8.90
2023-03-04T20:17:36.891Z,8.90
2023-03-04T20:20:04.171Z,8.90
2023-03-04T20:22:31.382Z,8.80
2023-03-04T20:24:58.806Z,8.80
2023-03-04T20:27:26.545Z,8.80
2023-03-04T20:29:55.923Z,8.80
2023-03-04T20:32:24.089Z,8.80
2023-03-04T20:34:54.156Z,8.80
2023-03-04T20:37:24.149Z,10.30
2023-03-04T20:39:51.317Z,8.80
2023-03-04T20:42:19.073Z,8.80
2023-03-04T20:44:46.096Z,8.70
2023-03-04T20:47:13.059Z,8.90
2023-03-04T20:49:40.102Z,8.70
2023-03-04T20:52:09.805Z,8.70
2023-03-04T20:54:39.156Z,8.70
2023-03-04T20:57:08.290Z,8.70
2023-03-04T20:59:36.339Z,8.70
2023-03-04T21:02:03.742Z,9.50
2023-03-04T21:04:33.281Z,8.60
2023-03-04T21:07:02.572Z,9.60
2023-03-04T21:09:29.738Z,8.60
2023-03-04T21:11:56.683Z,8.60
2023-03-04T21:14:27.658Z,8.60
2023-03-04T21:16:59.097Z,8.60
2023-03-04T21:19:30.864Z,8.60
2023-03-04T21:22:01.280Z,8.60
2023-03-04T21:24:35.482Z,8.80
2023-03-04T21:27:04.593Z,8.50
2023-03-04T21:29:32.041Z,8.60
2023-03-04T21:32:22.351Z,9.10
2023-03-04T21:34:53.927Z,8.60
2023-03-04T21:37:23.966Z,9.90
2023-03-04T21:39:51.016Z,8.50
2023-03-04T21:42:18.868Z,8.50
2023-03-04T21:44:49.679Z,9.60
2023-03-04T21:47:19.385Z,8.50
2023-03-04T21:49:46.395Z,8.50
2023-03-04T21:52:13.695Z,8.50
2023-03-04T21:54:40.604Z,8.50
2023-03-04T21:57:07.708Z,8.50
2023-03-04T21:59:34.607Z,8.40
2023-03-04T22:02:02.621Z,8.40
2023-03-04T22:04:29.840Z,9.60
2023-03-04T22:06:57.640Z,9.20
2023-03-04T22:09:24.874Z,8.40
2023-03-04T22:11:51.777Z,8.40
2023-03-04T22:14:18.662Z,8.40
2023-03-04T22:16:54.526Z,8.40
2023-03-04T22:19:30.076Z,8.40
2023-03-04T22:21:57.055Z,9.90
2023-03-04T22:24:23.989Z,8.40
2023-03-04T22:26:50.955Z,9.90
2023-03-04T22:29:18.364Z,10.10
2023-03-04T22:31:45.743Z,8.30
2023-03-04T22:34:15.639Z,9.50
2023-03-04T22:36:45.748Z,8.30
2023-03-04T22:39:16.022Z,8.20
2023-03-04T22:41:43.387Z,8.20
2023-03-04T22:44:11.171Z,8.20
2023-03-04T22:46:40.199Z,8.20
2023-03-04T22:49:10.401Z,8.20
2023-03-04T22:51:42.148Z,8.20
2023-03-04T22:54:16.709Z,10.00
2023-03-04T22:56:44.524Z,9.90
2023-03-04T22:59:11.950Z,9.60
2023-03-04T23:01:39.064Z,9.00
2023-03-04T23:04:06.186Z,8.10
2023-03-04T23:06:33.474Z,8.10
2023-03-04T23:09:00.702Z,9.10
2023-03-04T23:11:32.177Z,8.10
2023-03-04T23:14:02.146Z,8.50
2023-03-04T23:16:29.439Z,8.00
2023-03-04T23:18:58.894Z,8.20
2023-03-04T23:21:28.183Z,8.10
2023-03-04T23:23:55.200Z,8.50
2023-03-04T23:26:29.555Z,7.90
2023-03-04T23:28:57.201Z,7.90
2023-03-04T23:31:25.546Z,7.90
2023-03-04T23:33:57.164Z,8.30
2023-03-04T23:36:29.112Z,7.90
2023-03-04T23:38:57.490Z,7.90
2023-03-04T23:41:29.004Z,7.90
2023-03-04T23:43:58.998Z,7.90
2023-03-04T23:46:27.369Z,8.50
2023-03-04T23:48:55.030Z,7.90
2023-03-04T23:51:27.811Z,8.10
2023-03-04T23:53:56.101Z,7.80
2023-03-04T23:56:28.110Z,7.80
2023-03-04T23:58:57.678Z,7.80
